sensor_id;sensor_type;location;lat;lon;timestamp;P1;durP1;ratioP1;P2;durP2;ratioP2
47778;SDS011;33538;48.432;11.350;2023-02-01T00:00:17;5.00;;;2.33;;
47778;SDS011;33538;48.432;11.350;2023-02-01T00:02:44;5.97;;;2.90;;
47778;SDS011;33538;48.432;11.350;2023-02-01T00:05:12;4.82;;;2.63;;
47778;SDS011;33538;48.432;11.350;2023-02-01T00:07:39;6.00;;;2.67;;
47778;SDS011;33538;48.432;11.350;2023-02-01T00:10:07;5.63;;;2.70;;
47778;SDS011;33538;48.432;11.350;2023-02-01T00:12:34;5.63;;;2.63;;
47778;SDS011;33538;48.432;11.350;2023-02-01T00:15:02;4.63;;;2.20;;
47778;SDS011;33538;48.432;11.350;2023-02-01T00:17:30;5.65;;;2.70;;
47778;SDS011;33538;48.432;11.350;2023-02-01T00:19:56;2.58;;;1.63;;
47778;SDS011;33538;48.432;11.350;2023-02-01T00:22:23;6.05;;;2.35;;
47778;SDS011;33538;48.432;11.350;2023-02-01T00:24:50;6.93;;;2.45;;
47778;SDS011;33538;48.432;11.350;2023-02-01T00:27:17;6.85;;;2.72;;
47778;SDS011;33538;48.432;11.350;2023-02-01T00:29:44;6.85;;;3.08;;
47778;SDS011;33538;48.432;11.350;2023-02-01T00:32:12;4.00;;;2.20;;
47778;SDS011;33538;48.432;11.350;2023-02-01T00:34:39;6.60;;;2.45;;
47778;SDS011;33538;48.432;11.350;2023-02-01T00:37:06;5.13;;;3.42;;
47778;SDS011;33538;48.432;11.350;2023-02-01T00:39:33;5.18;;;2.72;;
47778;SDS011;33538;48.432;11.350;2023-02-01T00:42:00;4.55;;;2.53;;
47778;SDS011;33538;48.432;11.350;2023-02-01T00:44:27;5.68;;;3.08;;
47778;SDS011;33538;48.432;11.350;2023-02-01T00:46:53;4.20;;;2.65;;
47778;SDS011;33538;48.432;11.350;2023-02-01T00:49:22;6.55;;;3.13;;
47778;SDS011;33538;48.432;11.350;2023-02-01T00:51:48;6.30;;;2.72;;
47778;SDS011;33538;48.432;11.350;2023-02-01T00:54:15;5.60;;;2.90;;
47778;SDS011;33538;48.432;11.350;2023-02-01T00:56:42;5.00;;;2.65;;
47778;SDS011;33538;48.432;11.350;2023-02-01T00:59:10;7.53;;;3.10;;
47778;SDS011;33538;48.432;11.350;2023-02-01T01:01:37;6.82;;;3.17;;
47778;SDS011;33538;48.432;11.350;2023-02-01T01:04:04;4.38;;;2.38;;
47778;SDS011;33538;48.432;11.350;2023-02-01T01:06:33;7.25;;;2.90;;
47778;SDS011;33538;48.432;11.350;2023-02-01T01:09:01;7.32;;;3.50;;
47778;SDS011;33538;48.432;11.350;2023-02-01T01:11:30;7.72;;;2.75;;
47778;SDS011;33538;48.432;11.350;2023-02-01T01:13:58;5.97;;;2.60;;
47778;SDS011;33538;48.432;11.350;2023-02-01T01:16:26;6.57;;;3.58;;
47778;SDS011;33538;48.432;11.350;2023-02-01T01:18:55;6.65;;;2.60;;
47778;SDS011;33538;48.432;11.350;2023-02-01T01:21:23;7.57;;;3.20;;
47778;SDS011;33538;48.432;11.350;2023-02-01T01:23:51;6.15;;;3.45;;
47778;SDS011;33538;48.432;11.350;2023-02-01T01:26:19;5.35;;;2.95;;
47778;SDS011;33538;48.432;11.350;2023-02-01T01:28:47;4.40;;;2.83;;
47778;SDS011;33538;48.432;11.350;2023-02-01T01:31:15;5.68;;;2.90;;
47778;SDS011;33538;48.432;11.350;2023-02-01T01:33:43;4.10;;;2.20;;
47778;SDS011;33538;48.432;11.350;2023-02-01T01:36:13;9.13;;;3.13;;
47778;SDS011;33538;48.432;11.350;2023-02-01T01:38:40;5.80;;;2.70;;
47778;SDS011;33538;48.432;11.350;2023-02-01T01:41:09;9.00;;;3.70;;
47778;SDS011;33538;48.432;11.350;2023-02-01T01:43:50;7.03;;;2.60;;
47778;SDS011;33538;48.432;11.350;2023-02-01T01:46:21;6.75;;;3.00;;
47778;SDS011;33538;48.432;11.350;2023-02-01T01:48:50;6.22;;;2.75;;
47778;SDS011;33538;48.432;11.350;2023-02-01T01:51:20;6.28;;;2.78;;
47778;SDS011;33538;48.432;11.350;2023-02-01T01:53:53;6.22;;;2.90;;
47778;SDS011;33538;48.432;11.350;2023-02-01T01:56:26;6.78;;;2.65;;
47778;SDS011;33538;48.432;11.350;2023-02-01T01:58:54;5.90;;;3.38;;
47778;SDS011;33538;48.432;11.350;2023-02-01T02:01:22;9.23;;;3.90;;
47778;SDS011;33538;48.432;11.350;2023-02-01T02:03:48;6.50;;;3.47;;
47778;SDS011;33538;48.432;11.350;2023-02-01T02:06:18;4.03;;;2.50;;
47778;SDS011;33538;48.432;11.350;2023-02-01T02:09:04;5.03;;;3.08;;
47778;SDS011;33538;48.432;11.350;2023-02-01T02:11:33;7.13;;;3.40;;
47778;SDS011;33538;48.432;11.350;2023-02-01T02:14:00;7.97;;;3.13;;
47778;SDS011;33538;48.432;11.350;2023-02-01T02:16:35;5.30;;;2.60;;
47778;SDS011;33538;48.432;11.350;2023-02-01T02:19:24;9.65;;;2.60;;
47778;SDS011;33538;48.432;11.350;2023-02-01T02:22:19;7.65;;;2.95;;
47778;SDS011;33538;48.432;11.350;2023-02-01T02:25:03;5.45;;;2.95;;
47778;SDS011;33538;48.432;11.350;2023-02-01T02:27:52;6.53;;;3.10;;
47778;SDS011;33538;48.432;11.350;2023-02-01T02:33:40;4.90;;;2.92;;
47778;SDS011;33538;48.432;11.350;2023-02-01T02:36:15;7.03;;;3.38;;
47778;SDS011;33538;48.432;11.350;2023-02-01T02:38:50;6.18;;;3.35;;
47778;SDS011;33538;48.432;11.350;2023-02-01T02:41:26;6.28;;;3.38;;
47778;SDS011;33538;48.432;11.350;2023-02-01T02:43:57;7.90;;;3.90;;
47778;SDS011;33538;48.432;11.350;2023-02-01T02:46:28;5.15;;;2.90;;
47778;SDS011;33538;48.432;11.350;2023-02-01T02:49:03;6.50;;;3.47;;
47778;SDS011;33538;48.432;11.350;2023-02-01T02:51:34;5.40;;;3.50;;
47778;SDS011;33538;48.432;11.350;2023-02-01T02:54:07;4.35;;;2.95;;
47778;SDS011;33538;48.432;11.350;2023-02-01T02:56:36;5.70;;;2.63;;
47778;SDS011;33538;48.432;11.350;2023-02-01T02:59:04;13.65;;;3.33;;
47778;SDS011;33538;48.432;11.350;2023-02-01T03:01:33;5.80;;;3.17;;
47778;SDS011;33538;48.432;11.350;2023-02-01T03:04:01;4.90;;;2.67;;
47778;SDS011;33538;48.432;11.350;2023-02-01T03:06:28;7.18;;;3.78;;
47778;SDS011;33538;48.432;11.350;2023-02-01T03:08:58;7.47;;;3.10;;
47778;SDS011;33538;48.432;11.350;2023-02-01T03:11:29;5.68;;;2.70;;
47778;SDS011;33538;48.432;11.350;2023-02-01T03:13:58;5.45;;;2.72;;
47778;SDS011;33538;48.432;11.350;2023-02-01T03:16:31;5.55;;;3.17;;
47778;SDS011;33538;48.432;11.350;2023-02-01T03:19:00;7.82;;;3.15;;
47778;SDS011;33538;48.432;11.350;2023-02-01T03:21:34;6.32;;;2.75;;
47778;SDS011;33538;48.432;11.350;2023-02-01T03:24:07;8.75;;;3.47;;
47778;SDS011;33538;48.432;11.350;2023-02-01T03:26:38;6.38;;;2.97;;
47778;SDS011;33538;48.432;11.350;2023-02-01T03:29:11;6.57;;;2.65;;
47778;SDS011;33538;48.432;11.350;2023-02-01T03:31:40;3.83;;;2.83;;
47778;SDS011;33538;48.432;11.350;2023-02-01T03:34:09;5.03;;;2.85;;
47778;SDS011;33538;48.432;11.350;2023-02-01T03:36:37;4.80;;;3.28;;
47778;SDS011;33538;48.432;11.350;2023-02-01T03:39:07;6.47;;;3.10;;
47778;SDS011;33538;48.432;11.350;2023-02-01T03:41:42;7.70;;;3.13;;
47778;SDS011;33538;48.432;11.350;2023-02-01T03:44:13;2.40;;;1.88;;
47778;SDS011;33538;48.432;11.350;2023-02-01T03:46:43;4.93;;;2.78;;
47778;SDS011;33538;48.432;11.350;2023-02-01T03:49:18;5.73;;;2.50;;
47778;SDS011;33538;48.432;11.350;2023-02-01T03:51:49;5.45;;;2.20;;
47778;SDS011;33538;48.432;11.350;2023-02-01T03:54:17;6.88;;;3.22;;
47778;SDS011;33538;48.432;11.350;2023-02-01T03:56:45;4.95;;;2.65;;
47778;SDS011;33538;48.432;11.350;2023-02-01T03:59:14;3.55;;;2.10;;
47778;SDS011;33538;48.432;11.350;2023-02-01T04:01:41;5.75;;;3.05;;
47778;SDS011;33538;48.432;11.350;2023-02-01T04:04:08;5.53;;;2.65;;
47778;SDS011;33538;48.432;11.350;2023-02-01T04:06:37;4.43;;;2.45;;
47778;SDS011;33538;48.432;11.350;2023-02-01T04:09:04;5.82;;;2.53;;
47778;SDS011;33538;48.432;11.350;2023-02-01T04:11:30;3.00;;;1.85;;
47778;SDS011;33538;48.432;11.350;2023-02-01T04:13:57;4.07;;;1.90;;
47778;SDS011;33538;48.432;11.350;2023-02-01T04:16:24;5.40;;;2.70;;
47778;SDS011;33538;48.432;11.350;2023-02-01T04:18:51;6.75;;;2.95;;
47778;SDS011;33538;48.432;11.350;2023-02-01T04:21:20;7.15;;;2.35;;
47778;SDS011;33538;48.432;11.350;2023-02-01T04:23:48;4.25;;;2.58;;
47778;SDS011;33538;48.432;11.350;2023-02-01T04:26:15;3.63;;;1.95;;
47778;SDS011;33538;48.432;11.350;2023-02-01T04:28:42;3.20;;;1.83;;
47778;SDS011;33538;48.432;11.350;2023-02-01T04:31:08;3.33;;;1.92;;
47778;SDS011;33538;48.432;11.350;2023-02-01T04:33:35;3.97;;;2.40;;
47778;SDS011;33538;48.432;11.350;2023-02-01T04:36:02;3.22;;;1.88;;
47778;SDS011;33538;48.432;11.350;2023-02-01T04:38:29;4.68;;;2.30;;
47778;SDS011;33538;48.432;11.350;2023-02-01T04:40:57;2.90;;;2.03;;
47778;SDS011;33538;48.432;11.350;2023-02-01T04:43:24;6.88;;;3.00;;
47778;SDS011;33538;48.432;11.350;2023-02-01T04:45:51;4.32;;;2.58;;
47778;SDS011;33538;48.432;11.350;2023-02-01T04:48:19;3.58;;;2.38;;
47778;SDS011;33538;48.432;11.350;2023-02-01T04:50:49;3.58;;;2.20;;
47778;SDS011;33538;48.432;11.350;2023-02-01T04:53:16;4.22;;;2.63;;
47778;SDS011;33538;48.432;11.350;2023-02-01T04:55:43;6.82;;;3.13;;
47778;SDS011;33538;48.432;11.350;2023-02-01T04:58:11;4.80;;;2.13;;
47778;SDS011;33538;48.432;11.350;2023-02-01T05:00:38;3.70;;;2.50;;
47778;SDS011;33538;48.432;11.350;2023-02-01T05:03:04;2.50;;;1.75;;
47778;SDS011;33538;48.432;11.350;2023-02-01T05:05:31;5.07;;;2.08;;
47778;SDS011;33538;48.432;11.350;2023-02-01T05:07:58;3.92;;;2.10;;
47778;SDS011;33538;48.432;11.350;2023-02-01T05:10:25;2.22;;;1.60;;
47778;SDS011;33538;48.432;11.350;2023-02-01T05:12:52;5.65;;;2.95;;
47778;SDS011;33538;48.432;11.350;2023-02-01T05:15:20;1.95;;;1.63;;
47778;SDS011;33538;48.432;11.350;2023-02-01T05:17:47;4.78;;;2.45;;
47778;SDS011;33538;48.432;11.350;2023-02-01T05:20:13;2.30;;;1.48;;
47778;SDS011;33538;48.432;11.350;2023-02-01T05:22:40;4.63;;;2.35;;
47778;SDS011;33538;48.432;11.350;2023-02-01T05:25:07;2.90;;;1.95;;
47778;SDS011;33538;48.432;11.350;2023-02-01T05:27:34;1.58;;;0.82;;
47778;SDS011;33538;48.432;11.350;2023-02-01T05:30:01;5.10;;;2.15;;
47778;SDS011;33538;48.432;11.350;2023-02-01T05:32:30;2.13;;;1.40;;
47778;SDS011;33538;48.432;11.350;2023-02-01T05:34:57;5.35;;;2.10;;
47778;SDS011;33538;48.432;11.350;2023-02-01T05:37:24;2.92;;;2.17;;
47778;SDS011;33538;48.432;11.350;2023-02-01T05:39:51;4.85;;;2.00;;
47778;SDS011;33538;48.432;11.350;2023-02-01T05:42:18;3.38;;;1.95;;
47778;SDS011;33538;48.432;11.350;2023-02-01T05:44:44;2.42;;;1.65;;
47778;SDS011;33538;48.432;11.350;2023-02-01T05:47:11;5.00;;;2.35;;
47778;SDS011;33538;48.432;11.350;2023-02-01T05:49:39;4.00;;;1.90;;
47778;SDS011;33538;48.432;11.350;2023-02-01T05:52:06;5.00;;;2.28;;
47778;SDS011;33538;48.432;11.350;2023-02-01T05:54:33;3.47;;;1.92;;
47778;SDS011;33538;48.432;11.350;2023-02-01T05:57:00;4.13;;;2.38;;
47778;SDS011;33538;48.432;11.350;2023-02-01T05:59:27;2.53;;;1.70;;
47778;SDS011;33538;48.432;11.350;2023-02-01T06:01:53;2.92;;;1.75;;
47778;SDS011;33538;48.432;11.350;2023-02-01T06:04:20;2.35;;;1.73;;
47778;SDS011;33538;48.432;11.350;2023-02-01T06:06:48;6.30;;;3.58;;
47778;SDS011;33538;48.432;11.350;2023-02-01T06:09:15;4.70;;;1.95;;
47778;SDS011;33538;48.432;11.350;2023-02-01T06:11:42;2.75;;;1.63;;
47778;SDS011;33538;48.432;11.350;2023-02-01T06:14:08;5.47;;;2.08;;
47778;SDS011;33538;48.432;11.350;2023-02-01T06:16:35;2.78;;;2.05;;
47778;SDS011;33538;48.432;11.350;2023-02-01T06:19:02;1.73;;;1.55;;
47778;SDS011;33538;48.432;11.350;2023-02-01T06:21:29;3.80;;;2.20;;
47778;SDS011;33538;48.432;11.350;2023-02-01T06:23:57;2.00;;;1.33;;
47778;SDS011;33538;48.432;11.350;2023-02-01T06:26:24;3.00;;;2.00;;
47778;SDS011;33538;48.432;11.350;2023-02-01T06:28:51;2.33;;;1.60;;
47778;SDS011;33538;48.432;11.350;2023-02-01T06:31:18;3.80;;;2.20;;
47778;SDS011;33538;48.432;11.350;2023-02-01T06:33:45;4.15;;;2.40;;
47778;SDS011;33538;48.432;11.350;2023-02-01T06:36:12;3.47;;;2.17;;
47778;SDS011;33538;48.432;11.350;2023-02-01T06:38:39;3.75;;;1.73;;
47778;SDS011;33538;48.432;11.350;2023-02-01T06:41:07;3.13;;;1.23;;
47778;SDS011;33538;48.432;11.350;2023-02-01T06:43:34;3.88;;;1.50;;
47778;SDS011;33538;48.432;11.350;2023-02-01T06:46:02;3.28;;;2.22;;
47778;SDS011;33538;48.432;11.350;2023-02-01T06:48:30;3.75;;;1.75;;
47778;SDS011;33538;48.432;11.350;2023-02-01T06:50:57;3.95;;;1.85;;
47778;SDS011;33538;48.432;11.350;2023-02-01T06:53:24;2.97;;;1.70;;
47778;SDS011;33538;48.432;11.350;2023-02-01T06:55:52;3.42;;;2.03;;
47778;SDS011;33538;48.432;11.350;2023-02-01T06:58:21;2.25;;;1.55;;
47778;SDS011;33538;48.432;11.350;2023-02-01T07:00:48;3.53;;;2.03;;
47778;SDS011;33538;48.432;11.350;2023-02-01T07:03:14;3.78;;;1.48;;
47778;SDS011;33538;48.432;11.350;2023-02-01T07:05:42;6.20;;;2.53;;
47778;SDS011;33538;48.432;11.350;2023-02-01T07:08:08;2.42;;;1.25;;
47778;SDS011;33538;48.432;11.350;2023-02-01T07:10:35;2.92;;;2.08;;
47778;SDS011;33538;48.432;11.350;2023-02-01T07:13:02;4.03;;;2.03;;
47778;SDS011;33538;48.432;11.350;2023-02-01T07:15:30;1.67;;;1.05;;
47778;SDS011;33538;48.432;11.350;2023-02-01T07:17:58;5.93;;;2.38;;
47778;SDS011;33538;48.432;11.350;2023-02-01T07:20:24;3.67;;;2.50;;
47778;SDS011;33538;48.432;11.350;2023-02-01T07:22:54;8.45;;;2.50;;
47778;SDS011;33538;48.432;11.350;2023-02-01T07:25:21;3.50;;;2.28;;
47778;SDS011;33538;48.432;11.350;2023-02-01T07:27:48;3.80;;;2.17;;
47778;SDS011;33538;48.432;11.350;2023-02-01T07:30:15;2.72;;;1.80;;
47778;SDS011;33538;48.432;11.350;2023-02-01T07:32:44;3.75;;;2.35;;
47778;SDS011;33538;48.432;11.350;2023-02-01T07:35:11;6.03;;;2.55;;
47778;SDS011;33538;48.432;11.350;2023-02-01T07:37:38;5.60;;;3.08;;
47778;SDS011;33538;48.432;11.350;2023-02-01T07:40:05;2.92;;;1.85;;
47778;SDS011;33538;48.432;11.350;2023-02-01T07:42:33;5.03;;;2.30;;
47778;SDS011;33538;48.432;11.350;2023-02-01T07:45:00;4.22;;;2.30;;
47778;SDS011;33538;48.432;11.350;2023-02-01T07:47:46;4.68;;;2.25;;
47778;SDS011;33538;48.432;11.350;2023-02-01T07:50:13;5.60;;;2.47;;
47778;SDS011;33538;48.432;11.350;2023-02-01T07:52:40;5.57;;;2.50;;
47778;SDS011;33538;48.432;11.350;2023-02-01T07:55:07;5.80;;;2.95;;
47778;SDS011;33538;48.432;11.350;2023-02-01T07:57:35;3.15;;;1.80;;
47778;SDS011;33538;48.432;11.350;2023-02-01T08:00:02;3.20;;;2.15;;
47778;SDS011;33538;48.432;11.350;2023-02-01T08:02:29;4.38;;;2.65;;
47778;SDS011;33538;48.432;11.350;2023-02-01T08:04:58;8.57;;;3.00;;
47778;SDS011;33538;48.432;11.350;2023-02-01T08:07:25;7.10;;;2.47;;
47778;SDS011;33538;48.432;11.350;2023-02-01T08:09:52;4.32;;;1.85;;
47778;SDS011;33538;48.432;11.350;2023-02-01T08:12:18;2.85;;;1.77;;
47778;SDS011;33538;48.432;11.350;2023-02-01T08:14:45;6.72;;;2.22;;
47778;SDS011;33538;48.432;11.350;2023-02-01T08:17:12;2.90;;;1.80;;
47778;SDS011;33538;48.432;11.350;2023-02-01T08:19:39;3.50;;;1.60;;
47778;SDS011;33538;48.432;11.350;2023-02-01T08:22:07;4.18;;;1.25;;
47778;SDS011;33538;48.432;11.350;2023-02-01T08:24:34;2.28;;;1.50;;
47778;SDS011;33538;48.432;11.350;2023-02-01T08:27:00;3.50;;;1.55;;
47778;SDS011;33538;48.432;11.350;2023-02-01T08:29:28;3.58;;;1.85;;
47778;SDS011;33538;48.432;11.350;2023-02-01T08:31:54;2.85;;;2.00;;
47778;SDS011;33538;48.432;11.350;2023-02-01T08:34:21;5.90;;;2.08;;
47778;SDS011;33538;48.432;11.350;2023-02-01T08:36:48;3.15;;;1.95;;
47778;SDS011;33538;48.432;11.350;2023-02-01T08:39:16;2.15;;;1.63;;
47778;SDS011;33538;48.432;11.350;2023-02-01T08:41:43;2.83;;;1.73;;
47778;SDS011;33538;48.432;11.350;2023-02-01T08:44:10;1.98;;;1.30;;
47778;SDS011;33538;48.432;11.350;2023-02-01T08:46:36;2.67;;;1.50;;
47778;SDS011;33538;48.432;11.350;2023-02-01T08:49:03;3.72;;;2.28;;
47778;SDS011;33538;48.432;11.350;2023-02-01T08:51:30;2.70;;;1.80;;
47778;SDS011;33538;48.432;11.350;2023-02-01T08:53:57;4.53;;;1.75;;
47778;SDS011;33538;48.432;11.350;2023-02-01T08:56:25;3.58;;;2.10;;
47778;SDS011;33538;48.432;11.350;2023-02-01T08:58:52;3.97;;;1.83;;
47778;SDS011;33538;48.432;11.350;2023-02-01T09:01:18;2.08;;;1.40;;
47778;SDS011;33538;48.432;11.350;2023-02-01T09:03:45;2.15;;;1.30;;
47778;SDS011;33538;48.432;11.350;2023-02-01T09:06:13;1.73;;;1.15;;
47778;SDS011;33538;48.432;11.350;2023-02-01T09:08:40;1.70;;;1.23;;
47778;SDS011;33538;48.432;11.350;2023-02-01T09:11:09;3.95;;;1.55;;
47778;SDS011;33538;48.432;11.350;2023-02-01T09:13:39;1.98;;;1.38;;
47778;SDS011;33538;48.432;11.350;2023-02-01T09:16:06;4.30;;;2.30;;
47778;SDS011;33538;48.432;11.350;2023-02-01T09:18:34;2.05;;;1.42;;
47778;SDS011;33538;48.432;11.350;2023-02-01T09:21:03;1.40;;;0.88;;
47778;SDS011;33538;48.432;11.350;2023-02-01T09:23:30;3.03;;;1.55;;
47778;SDS011;33538;48.432;11.350;2023-02-01T09:25:58;2.60;;;1.75;;
47778;SDS011;33538;48.432;11.350;2023-02-01T09:28:25;2.30;;;1.80;;
47778;SDS011;33538;48.432;11.350;2023-02-01T09:30:55;2.30;;;1.60;;
47778;SDS011;33538;48.432;11.350;2023-02-01T09:33:22;2.67;;;1.85;;
47778;SDS011;33538;48.432;11.350;2023-02-01T09:35:54;2.10;;;1.30;;
47778;SDS011;33538;48.432;11.350;2023-02-01T09:38:21;4.70;;;1.90;;
47778;SDS011;33538;48.432;11.350;2023-02-01T09:40:48;3.80;;;1.30;;
47778;SDS011;33538;48.432;11.350;2023-02-01T09:43:18;2.78;;;1.58;;
47778;SDS011;33538;48.432;11.350;2023-02-01T09:45:58;2.90;;;1.75;;
47778;SDS011;33538;48.432;11.350;2023-02-01T09:48:32;2.72;;;1.60;;
47778;SDS011;33538;48.432;11.350;2023-02-01T09:51:02;3.63;;;1.83;;
47778;SDS011;33538;48.432;11.350;2023-02-01T09:53:33;1.90;;;1.00;;
47778;SDS011;33538;48.432;11.350;2023-02-01T09:56:02;2.20;;;1.30;;
47778;SDS011;33538;48.432;11.350;2023-02-01T09:58:33;2.58;;;1.52;;
47778;SDS011;33538;48.432;11.350;2023-02-01T10:01:05;1.98;;;1.05;;
47778;SDS011;33538;48.432;11.350;2023-02-01T10:03:41;2.15;;;1.67;;
47778;SDS011;33538;48.432;11.350;2023-02-01T10:06:30;4.95;;;2.08;;
47778;SDS011;33538;48.432;11.350;2023-02-01T10:09:14;2.50;;;1.55;;
47778;SDS011;33538;48.432;11.350;2023-02-01T10:11:50;2.42;;;1.63;;
47778;SDS011;33538;48.432;11.350;2023-02-01T10:14:44;4.32;;;2.00;;
47778;SDS011;33538;48.432;11.350;2023-02-01T10:17:23;4.18;;;1.52;;
47778;SDS011;33538;48.432;11.350;2023-02-01T10:20:02;2.50;;;1.60;;
47778;SDS011;33538;48.432;11.350;2023-02-01T10:22:36;1.98;;;1.25;;
47778;SDS011;33538;48.432;11.350;2023-02-01T10:25:28;2.13;;;1.37;;
47778;SDS011;33538;48.432;11.350;2023-02-01T10:28:02;2.47;;;1.67;;
47778;SDS011;33538;48.432;11.350;2023-02-01T10:30:30;4.65;;;2.20;;
47778;SDS011;33538;48.432;11.350;2023-02-01T10:33:12;1.80;;;1.30;;
47778;SDS011;33538;48.432;11.350;2023-02-01T10:35:42;1.98;;;1.60;;
47778;SDS011;33538;48.432;11.350;2023-02-01T10:38:12;5.03;;;2.42;;
47778;SDS011;33538;48.432;11.350;2023-02-01T10:40:44;3.13;;;2.45;;
47778;SDS011;33538;48.432;11.350;2023-02-01T10:43:11;2.83;;;1.83;;
47778;SDS011;33538;48.432;11.350;2023-02-01T10:45:39;2.30;;;1.35;;
47778;SDS011;33538;48.432;11.350;2023-02-01T10:48:08;2.65;;;1.88;;
47778;SDS011;33538;48.432;11.350;2023-02-01T10:50:35;2.03;;;1.30;;
47778;SDS011;33538;48.432;11.350;2023-02-01T10:53:06;4.13;;;1.83;;
47778;SDS011;33538;48.432;11.350;2023-02-01T10:55:39;3.10;;;1.65;;
47778;SDS011;33538;48.432;11.350;2023-02-01T10:58:10;6.05;;;2.00;;
47778;SDS011;33538;48.432;11.350;2023-02-01T11:00:43;2.63;;;1.48;;
47778;SDS011;33538;48.432;11.350;2023-02-01T11:03:32;4.07;;;2.08;;
47778;SDS011;33538;48.432;11.350;2023-02-01T11:06:04;3.35;;;1.80;;
47778;SDS011;33538;48.432;11.350;2023-02-01T11:08:41;3.40;;;1.92;;
47778;SDS011;33538;48.432;11.350;2023-02-01T11:11:10;4.50;;;2.15;;
47778;SDS011;33538;48.432;11.350;2023-02-01T11:13:38;3.22;;;1.50;;
47778;SDS011;33538;48.432;11.350;2023-02-01T11:16:06;3.75;;;1.40;;
47778;SDS011;33538;48.432;11.350;2023-02-01T11:18:38;5.68;;;1.67;;
47778;SDS011;33538;48.432;11.350;2023-02-01T11:21:05;6.00;;;2.10;;
47778;SDS011;33538;48.432;11.350;2023-02-01T11:23:33;3.58;;;1.88;;
47778;SDS011;33538;48.432;11.350;2023-02-01T11:26:09;3.08;;;1.98;;
47778;SDS011;33538;48.432;11.350;2023-02-01T11:28:38;2.80;;;1.52;;
47778;SDS011;33538;48.432;11.350;2023-02-01T11:31:10;3.17;;;1.75;;
47778;SDS011;33538;48.432;11.350;2023-02-01T11:33:42;3.33;;;1.70;;
47778;SDS011;33538;48.432;11.350;2023-02-01T11:36:15;3.90;;;2.28;;
47778;SDS011;33538;48.432;11.350;2023-02-01T11:38:45;4.38;;;1.98;;
47778;SDS011;33538;48.432;11.350;2023-02-01T11:41:20;1.48;;;1.15;;
47778;SDS011;33538;48.432;11.350;2023-02-01T11:43:52;2.70;;;1.48;;
47778;SDS011;33538;48.432;11.350;2023-02-01T11:46:22;4.60;;;1.77;;
47778;SDS011;33538;48.432;11.350;2023-02-01T11:48:52;5.68;;;1.92;;
47778;SDS011;33538;48.432;11.350;2023-02-01T11:51:23;2.72;;;1.92;;
47778;SDS011;33538;48.432;11.350;2023-02-01T11:54:02;2.65;;;1.65;;
47778;SDS011;33538;48.432;11.350;2023-02-01T11:56:42;3.50;;;1.63;;
47778;SDS011;33538;48.432;11.350;2023-02-01T11:59:18;4.45;;;2.33;;
47778;SDS011;33538;48.432;11.350;2023-02-01T12:01:59;3.40;;;1.83;;
47778;SDS011;33538;48.432;11.350;2023-02-01T12:07:57;2.10;;;1.48;;
47778;SDS011;33538;48.432;11.350;2023-02-01T12:10:40;2.92;;;1.63;;
47778;SDS011;33538;48.432;11.350;2023-02-01T12:13:14;2.67;;;1.30;;
47778;SDS011;33538;48.432;11.350;2023-02-01T12:15:57;2.75;;;1.75;;
47778;SDS011;33538;48.432;11.350;2023-02-01T12:18:37;4.00;;;1.92;;
47778;SDS011;33538;48.432;11.350;2023-02-01T12:21:28;5.45;;;2.17;;
47778;SDS011;33538;48.432;11.350;2023-02-01T12:24:15;3.80;;;2.33;;
47778;SDS011;33538;48.432;11.350;2023-02-01T12:27:05;6.55;;;2.75;;
47778;SDS011;33538;48.432;11.350;2023-02-01T12:29:56;5.30;;;2.20;;
47778;SDS011;33538;48.432;11.350;2023-02-01T12:32:45;3.30;;;2.10;;
47778;SDS011;33538;48.432;11.350;2023-02-01T12:35:31;8.10;;;2.03;;
47778;SDS011;33538;48.432;11.350;2023-02-01T12:38:15;5.78;;;1.98;;
47778;SDS011;33538;48.432;11.350;2023-02-01T12:40:54;3.88;;;1.50;;
47778;SDS011;33538;48.432;11.350;2023-02-01T12:43:35;5.95;;;2.50;;
47778;SDS011;33538;48.432;11.350;2023-02-01T12:46:06;3.15;;;1.80;;
47778;SDS011;33538;48.432;11.350;2023-02-01T12:48:36;8.00;;;2.10;;
47778;SDS011;33538;48.432;11.350;2023-02-01T12:51:09;2.40;;;1.48;;
47778;SDS011;33538;48.432;11.350;2023-02-01T12:53:44;5.07;;;2.28;;
47778;SDS011;33538;48.432;11.350;2023-02-01T12:56:18;4.30;;;2.40;;
47778;SDS011;33538;48.432;11.350;2023-02-01T12:58:50;5.05;;;2.35;;
47778;SDS011;33538;48.432;11.350;2023-02-01T13:01:20;4.43;;;2.15;;
47778;SDS011;33538;48.432;11.350;2023-02-01T13:03:53;9.65;;;2.42;;
47778;SDS011;33538;48.432;11.350;2023-02-01T13:06:23;5.75;;;1.70;;
47778;SDS011;33538;48.432;11.350;2023-02-01T13:08:56;5.72;;;1.85;;
47778;SDS011;33538;48.432;11.350;2023-02-01T13:11:29;3.28;;;1.55;;
47778;SDS011;33538;48.432;11.350;2023-02-01T13:14:00;4.95;;;2.13;;
47778;SDS011;33538;48.432;11.350;2023-02-01T13:16:30;5.63;;;1.80;;
47778;SDS011;33538;48.432;11.350;2023-02-01T13:19:02;5.35;;;2.20;;
47778;SDS011;33538;48.432;11.350;2023-02-01T13:21:33;3.53;;;1.60;;
47778;SDS011;33538;48.432;11.350;2023-02-01T13:24:06;2.78;;;1.80;;
47778;SDS011;33538;48.432;11.350;2023-02-01T13:26:49;6.72;;;2.30;;
47778;SDS011;33538;48.432;11.350;2023-02-01T13:29:18;3.63;;;1.38;;
47778;SDS011;33538;48.432;11.350;2023-02-01T13:34:41;6.30;;;2.97;;
47778;SDS011;33538;48.432;11.350;2023-02-01T13:37:26;4.07;;;1.50;;
47778;SDS011;33538;48.432;11.350;2023-02-01T13:40:23;10.10;;;2.35;;
47778;SDS011;33538;48.432;11.350;2023-02-01T13:43:09;5.43;;;2.17;;
47778;SDS011;33538;48.432;11.350;2023-02-01T13:45:45;3.25;;;1.75;;
47778;SDS011;33538;48.432;11.350;2023-02-01T13:48:18;5.10;;;2.15;;
47778;SDS011;33538;48.432;11.350;2023-02-01T13:50:49;4.13;;;2.00;;
47778;SDS011;33538;48.432;11.350;2023-02-01T13:53:26;4.47;;;2.22;;
47778;SDS011;33538;48.432;11.350;2023-02-01T13:55:57;5.88;;;2.35;;
47778;SDS011;33538;48.432;11.350;2023-02-01T13:58:30;5.45;;;1.80;;
47778;SDS011;33538;48.432;11.350;2023-02-01T14:07:17;7.47;;;1.85;;
47778;SDS011;33538;48.432;11.350;2023-02-01T14:09:45;2.08;;;1.23;;
47778;SDS011;33538;48.432;11.350;2023-02-01T14:15:19;1.98;;;1.48;;
47778;SDS011;33538;48.432;11.350;2023-02-01T14:17:52;3.00;;;1.65;;
47778;SDS011;33538;48.432;11.350;2023-02-01T14:28:54;3.60;;;1.92;;
47778;SDS011;33538;48.432;11.350;2023-02-01T14:31:31;3.55;;;1.65;;
47778;SDS011;33538;48.432;11.350;2023-02-01T14:34:10;4.10;;;2.35;;
47778;SDS011;33538;48.432;11.350;2023-02-01T14:36:43;2.60;;;1.38;;
47778;SDS011;33538;48.432;11.350;2023-02-01T14:39:24;1.55;;;1.42;;
47778;SDS011;33538;48.432;11.350;2023-02-01T14:42:01;4.05;;;2.22;;
47778;SDS011;33538;48.432;11.350;2023-02-01T14:44:36;4.38;;;1.83;;
47778;SDS011;33538;48.432;11.350;2023-02-01T14:52:39;6.40;;;1.98;;
47778;SDS011;33538;48.432;11.350;2023-02-01T14:55:09;2.75;;;1.55;;
47778;SDS011;33538;48.432;11.350;2023-02-01T14:57:40;3.03;;;1.38;;
47778;SDS011;33538;48.432;11.350;2023-02-01T15:00:19;2.42;;;1.35;;
47778;SDS011;33538;48.432;11.350;2023-02-01T15:02:49;4.13;;;1.20;;
47778;SDS011;33538;48.432;11.350;2023-02-01T15:05:29;1.20;;;0.90;;
47778;SDS011;33538;48.432;11.350;2023-02-01T15:07:57;1.77;;;1.05;;
47778;SDS011;33538;48.432;11.350;2023-02-01T15:10:41;3.80;;;2.00;;
47778;SDS011;33538;48.432;11.350;2023-02-01T15:13:20;2.45;;;0.93;;
47778;SDS011;33538;48.432;11.350;2023-02-01T15:16:07;1.70;;;1.02;;
47778;SDS011;33538;48.432;11.350;2023-02-01T15:18:37;5.57;;;1.40;;
47778;SDS011;33538;48.432;11.350;2023-02-01T15:21:04;7.15;;;1.75;;
47778;SDS011;33538;48.432;11.350;2023-02-01T15:24:03;3.47;;;1.45;;
47778;SDS011;33538;48.432;11.350;2023-02-01T15:26:37;4.82;;;1.52;;